LFGJ

Dole-Tavaux Airport

Airport
ICAO code
LFGJ
IATA Code
DLE
Summary
ICAO Region
EUR
ICAO Territory
Location

, Franche-Comte

Serving
Dole
Elevation
645 ft
Coordinates
47° 2' 20" N , 5° 25' 38" E
Metar
LFGJ 260200Z AUTO 19017KT 9999 BKN045 BKN056 OVC082 09/06 Q0995

Runways

Designator Length Width Surface Rops
5/23 2231 45 ASP Yes/Yes

Airport map

Aerial View

SKYbrary Partners:

Safety knowledge contributed by: